createdAt,value
2022-08-17T00:01:53.246Z,13.35
2022-08-17T00:04:37.279Z,13.98
2022-08-17T00:07:15.292Z,15.25
2022-08-17T00:10:00.898Z,14.88
2022-08-17T00:12:45.269Z,13.43
2022-08-17T00:15:34.903Z,13.65
2022-08-17T00:19:06.139Z,14.15
2022-08-17T00:21:25.151Z,13.15
2022-08-17T00:23:56.250Z,13.77
2022-08-17T00:29:24.268Z,12.73
2022-08-17T00:33:12.432Z,13.88
2022-08-17T00:35:11.912Z,13.98
2022-08-17T00:37:57.872Z,14.27
2022-08-17T00:40:45.607Z,12.90
2022-08-17T00:43:42.265Z,14.75
2022-08-17T00:46:23.389Z,12.93
2022-08-17T00:49:12.619Z,14.45
2022-08-17T00:52:10.693Z,13.70
2022-08-17T00:54:55.181Z,13.77
2022-08-17T00:57:53.391Z,12.70
2022-08-17T01:00:36.319Z,13.35
2022-08-17T01:03:34.537Z,12.65
2022-08-17T01:06:09.551Z,11.82
2022-08-17T01:08:57.563Z,12.10
2022-08-17T01:11:39.046Z,11.95
2022-08-17T01:14:19.438Z,13.65
2022-08-17T01:16:58.345Z,11.82
2022-08-17T01:19:34.432Z,12.63
2022-08-17T01:22:32.631Z,12.23
2022-08-17T01:25:26.196Z,13.32
2022-08-17T01:28:07.233Z,12.68
2022-08-17T01:30:56.697Z,12.65
2022-08-17T01:33:40.451Z,12.85
2022-08-17T01:36:26.946Z,13.23
2022-08-17T01:39:04.303Z,13.30
2022-08-17T01:41:47.465Z,14.20
2022-08-17T01:44:24.413Z,14.07
2022-08-17T01:50:01.977Z,14.32
2022-08-17T01:52:46.551Z,14.75
2022-08-17T01:55:33.994Z,13.98
2022-08-17T01:58:17.851Z,12.40
2022-08-17T02:01:00.762Z,14.25
2022-08-17T02:03:59.209Z,13.40
2022-08-17T02:06:53.537Z,13.70
2022-08-17T02:09:30.233Z,12.73
2022-08-17T02:12:37.852Z,13.68
2022-08-17T02:15:21.217Z,13.13
2022-08-17T02:17:54.593Z,12.13
2022-08-17T02:23:21.300Z,12.40
2022-08-17T02:26:09.036Z,15.07
2022-08-17T02:29:01.800Z,14.40
2022-08-17T02:31:56.643Z,16.47
2022-08-17T02:34:29.306Z,15.23
2022-08-17T02:37:11.230Z,15.07
2022-08-17T02:39:59.041Z,12.38
2022-08-17T02:42:49.109Z,12.98
2022-08-17T02:45:37.151Z,13.52
2022-08-17T02:48:16.275Z,11.80
2022-08-17T02:51:11.292Z,13.00
2022-08-17T02:53:47.457Z,12.93
2022-08-17T02:56:29.288Z,12.52
2022-08-17T02:59:05.199Z,12.30
2022-08-17T03:01:44.957Z,11.98
2022-08-17T03:04:18.499Z,12.23
2022-08-17T03:06:54.298Z,12.18
2022-08-17T03:09:33.974Z,11.60
2022-08-17T03:12:25.617Z,12.38
2022-08-17T03:14:58.138Z,13.07
2022-08-17T03:17:48.271Z,13.48
2022-08-17T03:20:28.114Z,13.70
2022-08-17T03:23:14.846Z,12.90
2022-08-17T03:25:53.624Z,11.73
2022-08-17T03:28:40.032Z,13.38
2022-08-17T03:31:21.816Z,12.15
2022-08-17T03:34:01.097Z,12.07
2022-08-17T03:36:36.061Z,13.48
2022-08-17T03:39:22.333Z,12.88
2022-08-17T03:42:32.369Z,13.45
2022-08-17T03:45:39.221Z,14.05
2022-08-17T03:48:46.056Z,12.73
2022-08-17T03:51:42.904Z,13.73
2022-08-17T03:57:20.267Z,12.18
2022-08-17T03:59:58.154Z,14.55
2022-08-17T04:02:40.543Z,14.70
2022-08-17T04:05:27.279Z,13.05
2022-08-17T04:08:12.309Z,13.95
2022-08-17T04:11:01.271Z,13.38
2022-08-17T04:13:42.913Z,14.10
2022-08-17T04:16:34.916Z,15.25
2022-08-17T04:19:18.246Z,14.27
2022-08-17T04:21:59.395Z,15.57
2022-08-17T04:24:37.746Z,15.95
2022-08-17T04:27:27.507Z,15.95
2022-08-17T04:30:03.449Z,16.63
2022-08-17T04:33:05.147Z,18.48
2022-08-17T04:36:00.730Z,18.33
2022-08-17T04:38:45.129Z,20.02
2022-08-17T04:41:40.316Z,20.88
2022-08-17T04:44:30.406Z,25.30
2022-08-17T04:47:20.631Z,25.83
2022-08-17T04:50:07.687Z,28.15
2022-08-17T04:53:00.549Z,31.33
2022-08-17T04:55:36.235Z,27.83
2022-08-17T04:58:19.322Z,29.60
2022-08-17T05:00:56.843Z,27.60
2022-08-17T05:03:47.230Z,33.40
2022-08-17T05:06:22.135Z,25.25
2022-08-17T05:09:17.712Z,20.80
2022-08-17T05:11:50.841Z,14.60
2022-08-17T05:14:33.582Z,12.00
2022-08-17T05:17:20.311Z,12.05
2022-08-17T05:20:02.424Z,12.43
2022-08-17T05:22:51.577Z,12.20
2022-08-17T05:25:29.369Z,12.40
2022-08-17T05:28:12.292Z,11.77
2022-08-17T05:30:43.924Z,9.98
2022-08-17T05:33:21.104Z,8.40
2022-08-17T05:35:58.317Z,8.80
2022-08-17T05:38:35.301Z,7.78
2022-08-17T05:41:15.428Z,8.73
2022-08-17T05:43:57.291Z,8.75
2022-08-17T05:46:38.421Z,8.20
2022-08-17T05:49:17.927Z,8.35
2022-08-17T05:52:07.350Z,7.68
2022-08-17T05:55:05.581Z,7.20
2022-08-17T05:58:00.342Z,7.15
2022-08-17T06:00:56.066Z,6.57
2022-08-17T06:04:24.264Z,6.72
2022-08-17T06:07:32.949Z,6.20
2022-08-17T06:10:34.301Z,5.22
2022-08-17T06:13:23.262Z,5.63
2022-08-17T06:16:33.175Z,5.85
2022-08-17T06:19:49.247Z,5.93
2022-08-17T06:25:22.061Z,5.25
2022-08-17T06:28:29.319Z,5.10
2022-08-17T06:31:22.359Z,5.57
2022-08-17T06:34:04.638Z,4.38
2022-08-17T06:37:14.598Z,5.13
2022-08-17T06:43:05.940Z,5.18
2022-08-17T06:46:17.367Z,5.13
2022-08-17T06:49:29.147Z,4.45
2022-08-17T06:52:13.640Z,4.30
2022-08-17T06:55:18.057Z,4.47
2022-08-17T06:57:58.305Z,4.13
2022-08-17T07:00:43.300Z,4.63
2022-08-17T07:03:47.700Z,4.63
2022-08-17T07:06:26.331Z,4.93
2022-08-17T07:09:09.151Z,4.65
2022-08-17T07:12:11.483Z,5.00
2022-08-17T07:15:25.980Z,5.07
2022-08-17T07:20:40.815Z,4.60
2022-08-17T07:24:03.450Z,5.22
2022-08-17T07:26:36.294Z,5.05
2022-08-17T07:29:23.991Z,4.80
2022-08-17T07:32:29.632Z,4.50
2022-08-17T07:35:57.797Z,4.22
2022-08-17T07:38:57.280Z,4.47
2022-08-17T07:41:53.318Z,4.28
2022-08-17T07:44:37.326Z,4.00
2022-08-17T07:47:40.584Z,4.00
2022-08-17T07:50:39.260Z,3.53
2022-08-17T07:53:31.263Z,4.30
2022-08-17T07:56:08.615Z,4.07
2022-08-17T07:58:46.810Z,4.63
2022-08-17T08:01:27.868Z,4.40
2022-08-17T08:05:02.037Z,5.28
2022-08-17T08:08:08.661Z,4.90
2022-08-17T08:11:00.304Z,5.05
2022-08-17T08:13:43.253Z,4.82
2022-08-17T08:16:26.093Z,5.53
2022-08-17T08:19:11.815Z,4.95
2022-08-17T08:21:59.157Z,5.40
2022-08-17T08:24:58.252Z,5.10
2022-08-17T08:28:21.875Z,5.78
2022-08-17T08:31:24.491Z,7.57
2022-08-17T08:34:44.436Z,6.78
2022-08-17T08:37:37.974Z,8.93
2022-08-17T08:40:46.054Z,6.70
2022-08-17T08:43:52.850Z,6.65
2022-08-17T08:46:40.790Z,6.35
2022-08-17T08:50:01.270Z,7.40
2022-08-17T08:52:30.953Z,6.53
2022-08-17T08:55:20.685Z,5.93
2022-08-17T08:58:31.871Z,5.65
2022-08-17T09:01:38.547Z,5.63
2022-08-17T09:05:14.751Z,6.28
2022-08-17T09:08:29.990Z,5.50
2022-08-17T09:11:30.428Z,5.55
2022-08-17T09:14:28.662Z,5.55
2022-08-17T09:17:17.138Z,5.75
2022-08-17T09:20:27.343Z,5.07
2022-08-17T09:23:08.790Z,5.43
2022-08-17T09:26:06.032Z,5.30
2022-08-17T09:28:50.263Z,5.43
2022-08-17T09:31:48.950Z,5.38
2022-08-17T09:35:09.319Z,5.75
2022-08-17T09:38:14.083Z,5.28
2022-08-17T09:41:23.984Z,5.40
2022-08-17T09:44:23.192Z,5.45
2022-08-17T09:47:30.011Z,5.35
2022-08-17T09:50:55.328Z,5.72
2022-08-17T09:53:32.814Z,5.18
2022-08-17T09:56:42.336Z,4.97
2022-08-17T09:59:35.949Z,5.53
2022-08-17T10:02:25.319Z,4.55
2022-08-17T10:05:34.200Z,4.90
2022-08-17T10:08:25.862Z,4.95
2022-08-17T10:11:45.734Z,5.22
2022-08-17T10:14:44.130Z,4.80
2022-08-17T10:17:41.673Z,4.50
2022-08-17T10:20:27.794Z,4.90
2022-08-17T10:23:29.515Z,4.60
2022-08-17T10:26:18.202Z,5.15
2022-08-17T10:28:58.783Z,5.03
2022-08-17T10:31:55.625Z,4.40
2022-08-17T10:34:42.851Z,4.38
2022-08-17T10:37:39.616Z,4.40
2022-08-17T10:40:30.980Z,4.07
2022-08-17T10:43:14.643Z,4.43
2022-08-17T10:46:10.443Z,4.72
2022-08-17T10:49:34.073Z,4.55
2022-08-17T10:52:27.321Z,4.43
2022-08-17T10:55:10.864Z,4.22
2022-08-17T10:57:49.571Z,4.15
2022-08-17T11:00:27.913Z,3.75
2022-08-17T11:03:04.992Z,4.00
2022-08-17T11:05:54.319Z,4.72
2022-08-17T11:09:03.000Z,4.63
2022-08-17T11:11:56.510Z,4.65
2022-08-17T11:15:07.223Z,4.20
2022-08-17T11:18:09.017Z,4.10
2022-08-17T11:21:06.079Z,3.97
2022-08-17T11:23:58.426Z,4.10
2022-08-17T11:26:41.645Z,4.40
2022-08-17T11:29:27.621Z,3.75
2022-08-17T11:32:37.073Z,4.70
2022-08-17T11:35:41.232Z,4.25
2022-08-17T11:38:46.230Z,4.75
2022-08-17T11:42:05.672Z,4.20
2022-08-17T11:45:31.737Z,4.07
2022-08-17T11:49:02.984Z,3.97
2022-08-17T11:52:05.086Z,3.80
2022-08-17T11:54:51.406Z,3.45
2022-08-17T11:58:09.727Z,3.70
2022-08-17T12:00:56.567Z,4.03
2022-08-17T12:03:54.671Z,3.97
2022-08-17T12:06:37.099Z,3.58
2022-08-17T12:09:26.468Z,3.60
2022-08-17T12:12:33.395Z,3.42
2022-08-17T12:15:19.720Z,3.58
2022-08-17T12:18:04.326Z,3.45
2022-08-17T12:20:56.501Z,4.32
2022-08-17T12:23:45.431Z,3.67
2022-08-17T12:26:22.762Z,3.45
2022-08-17T12:29:06.454Z,3.35
2022-08-17T12:32:02.339Z,3.80
2022-08-17T12:34:50.300Z,3.10
2022-08-17T12:37:28.161Z,3.33
2022-08-17T12:40:27.107Z,2.80
2022-08-17T12:43:12.333Z,3.28
2022-08-17T12:46:10.674Z,3.10
2022-08-17T12:48:55.081Z,3.08
2022-08-17T12:51:43.638Z,2.92
2022-08-17T12:55:06.231Z,3.20
2022-08-17T12:57:38.895Z,2.78
2022-08-17T13:00:20.092Z,2.97
2022-08-17T13:03:15.830Z,2.67
2022-08-17T13:06:09.592Z,2.70
2022-08-17T13:08:48.338Z,3.00
2022-08-17T13:11:24.907Z,3.15
2022-08-17T13:14:11.398Z,3.22
2022-08-17T13:16:58.020Z,2.75
2022-08-17T13:19:40.695Z,2.83
2022-08-17T13:25:09.223Z,3.00
2022-08-17T13:27:43.562Z,3.15
2022-08-17T13:30:23.997Z,3.10
2022-08-17T13:32:59.293Z,3.20
2022-08-17T13:36:08.191Z,3.00
2022-08-17T13:38:51.848Z,2.75
2022-08-17T13:41:36.765Z,3.13
2022-08-17T13:44:36.951Z,2.78
2022-08-17T13:47:23.477Z,2.55
2022-08-17T13:49:55.306Z,2.67
2022-08-17T13:52:48.784Z,2.70
2022-08-17T13:55:34.026Z,3.08
2022-08-17T13:58:12.378Z,2.85
2022-08-17T14:00:50.653Z,2.80
2022-08-17T14:03:20.923Z,3.13
2022-08-17T14:06:02.658Z,2.88
2022-08-17T14:08:39.663Z,2.58
2022-08-17T14:11:25.414Z,2.70
2022-08-17T14:13:55.317Z,3.17
2022-08-17T14:16:33.684Z,2.92
2022-08-17T14:19:11.603Z,2.72
2022-08-17T14:21:45.447Z,3.05
2022-08-17T14:24:25.727Z,2.85
2022-08-17T14:27:04.600Z,2.88
2022-08-17T14:29:42.573Z,2.83
2022-08-17T14:32:32.293Z,3.28
2022-08-17T14:35:13.320Z,2.50
2022-08-17T14:37:58.828Z,2.95
2022-08-17T14:40:41.081Z,2.72
2022-08-17T14:43:20.563Z,3.00
2022-08-17T14:45:56.204Z,2.60
2022-08-17T14:48:38.670Z,2.85
2022-08-17T14:51:13.794Z,2.70
2022-08-17T14:53:47.051Z,2.90
2022-08-17T14:56:31.691Z,2.85
2022-08-17T14:59:18.054Z,3.08
2022-08-17T15:01:53.804Z,2.80
2022-08-17T15:04:31.879Z,3.03
2022-08-17T15:07:09.059Z,2.63
2022-08-17T15:09:46.698Z,2.33
2022-08-17T15:12:34.795Z,3.08
2022-08-17T15:15:12.892Z,2.97
2022-08-17T15:17:46.004Z,2.80
2022-08-17T15:20:39.663Z,2.33
2022-08-17T15:25:58.287Z,2.42
2022-08-17T15:28:36.504Z,3.00
2022-08-17T15:31:09.453Z,2.47
2022-08-17T15:36:28.208Z,2.63
2022-08-17T15:39:06.204Z,2.80
2022-08-17T15:41:38.480Z,2.70
2022-08-17T15:44:18.925Z,3.03
2022-08-17T15:46:52.360Z,2.65
2022-08-17T15:49:39.098Z,2.50
2022-08-17T15:52:31.348Z,2.00
2022-08-17T15:55:09.540Z,2.70
2022-08-17T15:57:47.712Z,2.53
2022-08-17T16:00:24.364Z,2.50
2022-08-17T16:03:45.755Z,2.65
2022-08-17T16:05:59.254Z,2.65
2022-08-17T16:08:43.693Z,2.40
2022-08-17T16:11:26.064Z,2.50
2022-08-17T16:13:59.444Z,3.08
2022-08-17T16:16:42.680Z,2.50
2022-08-17T16:19:23.290Z,2.60
2022-08-17T16:22:02.256Z,2.50
2022-08-17T16:24:56.743Z,2.15
2022-08-17T16:27:35.176Z,2.22
2022-08-17T16:30:17.084Z,2.65
2022-08-17T16:32:58.518Z,2.70
2022-08-17T16:35:35.901Z,2.83
2022-08-17T16:38:12.524Z,2.25
2022-08-17T16:40:47.598Z,2.20
2022-08-17T16:43:25.610Z,1.88
2022-08-17T16:46:03.578Z,2.10
2022-08-17T16:48:38.661Z,2.17
2022-08-17T16:51:16.469Z,1.90
2022-08-17T16:53:59.173Z,2.05
2022-08-17T16:56:35.632Z,2.30
2022-08-17T16:59:41.853Z,2.40
2022-08-17T17:02:27.770Z,2.30
2022-08-17T17:05:31.158Z,2.22
2022-08-17T17:10:49.005Z,2.10
2022-08-17T17:13:35.077Z,2.00
2022-08-17T17:16:21.626Z,2.35
2022-08-17T17:19:16.793Z,2.45
2022-08-17T17:22:12.393Z,2.35
2022-08-17T17:25:11.951Z,2.35
2022-08-17T17:28:19.480Z,2.22
2022-08-17T17:31:09.329Z,2.97
2022-08-17T17:33:48.074Z,2.47
2022-08-17T17:36:25.567Z,2.45
2022-08-17T17:39:33.995Z,2.90
2022-08-17T17:42:14.616Z,2.67
2022-08-17T17:45:17.399Z,2.70
2022-08-17T17:47:53.626Z,2.92
2022-08-17T17:50:57.507Z,3.05
2022-08-17T17:53:50.340Z,3.30
2022-08-17T17:56:44.060Z,2.33
2022-08-17T17:59:49.182Z,3.38
2022-08-17T18:02:51.624Z,2.92
2022-08-17T18:05:51.722Z,2.72
2022-08-17T18:08:37.514Z,2.85
2022-08-17T18:11:42.414Z,3.30
2022-08-17T18:14:46.484Z,3.80
2022-08-17T18:17:22.665Z,4.30
2022-08-17T18:19:57.287Z,4.28
2022-08-17T18:22:31.425Z,4.22
2022-08-17T18:25:25.431Z,4.47
2022-08-17T18:28:14.587Z,6.40
2022-08-17T18:33:51.333Z,4.65
2022-08-17T18:36:42.168Z,4.70
2022-08-17T18:39:27.734Z,4.40
2022-08-17T18:42:06.300Z,4.43
2022-08-17T18:44:44.695Z,3.95
2022-08-17T18:47:27.632Z,3.63
2022-08-17T18:50:05.123Z,5.30
2022-08-17T18:52:55.277Z,4.85
2022-08-17T18:55:32.827Z,4.57
2022-08-17T18:58:20.734Z,4.57
2022-08-17T19:01:01.772Z,4.70
2022-08-17T19:03:50.359Z,4.47
2022-08-17T19:06:39.566Z,5.05
2022-08-17T19:09:34.721Z,4.57
2022-08-17T19:12:16.795Z,4.28
2022-08-17T19:14:56.284Z,5.35
2022-08-17T19:17:41.128Z,5.15
2022-08-17T19:20:21.876Z,4.80
2022-08-17T19:23:23.136Z,4.50
2022-08-17T19:26:05.810Z,4.20
2022-08-17T19:29:25.698Z,4.28
2022-08-17T19:32:06.293Z,4.15
2022-08-17T19:34:47.702Z,3.97
2022-08-17T19:37:47.471Z,4.00
2022-08-17T19:40:52.425Z,4.25
2022-08-17T19:43:56.269Z,4.68
2022-08-17T19:46:56.247Z,4.20
2022-08-17T19:49:58.743Z,3.60
2022-08-17T19:52:42.391Z,3.67
2022-08-17T19:55:39.637Z,4.35
2022-08-17T19:58:35.584Z,5.00
2022-08-17T20:01:17.051Z,5.07
2022-08-17T20:04:11.329Z,4.93
2022-08-17T20:06:57.303Z,4.27
2022-08-17T20:09:47.096Z,3.70
2022-08-17T20:12:26.265Z,4.57
2022-08-17T20:15:14.080Z,4.78
2022-08-17T20:17:53.259Z,5.22
2022-08-17T20:20:56.217Z,5.70
2022-08-17T20:23:54.956Z,4.78
2022-08-17T20:26:51.244Z,5.57
2022-08-17T20:29:56.139Z,4.40
2022-08-17T20:32:32.456Z,4.53
2022-08-17T20:35:26.067Z,4.32
2022-08-17T20:38:10.550Z,4.65
2022-08-17T20:41:03.154Z,4.70
2022-08-17T20:43:53.184Z,4.95
2022-08-17T20:47:05.830Z,4.28
2022-08-17T20:49:47.372Z,4.25
2022-08-17T20:53:19.388Z,4.03
2022-08-17T20:55:58.203Z,4.65
2022-08-17T20:58:37.108Z,4.65
2022-08-17T21:01:20.368Z,3.92
2022-08-17T21:03:55.336Z,3.92
2022-08-17T21:06:56.313Z,4.18
2022-08-17T21:09:41.968Z,4.32
2022-08-17T21:12:36.347Z,4.20
2022-08-17T21:15:25.151Z,3.97
2022-08-17T21:18:38.860Z,4.10
2022-08-17T21:21:48.896Z,4.30
2022-08-17T21:25:04.291Z,4.32
2022-08-17T21:28:03.670Z,4.13
2022-08-17T21:30:58.047Z,4.93
2022-08-17T21:33:44.322Z,4.38
2022-08-17T21:36:31.721Z,4.15
2022-08-17T21:39:30.635Z,4.10
2022-08-17T21:42:12.867Z,4.30
2022-08-17T21:45:01.020Z,3.92
2022-08-17T21:47:36.330Z,4.13
2022-08-17T21:50:32.447Z,4.78
2022-08-17T21:53:11.332Z,5.13
2022-08-17T21:55:49.341Z,5.50
2022-08-17T21:58:40.690Z,5.03
2022-08-17T22:01:21.972Z,5.70
2022-08-17T22:04:16.012Z,6.25
2022-08-17T22:07:05.942Z,5.32
2022-08-17T22:09:49.109Z,5.57
2022-08-17T22:12:27.047Z,5.57
2022-08-17T22:15:21.245Z,4.60
2022-08-17T22:18:09.949Z,4.53
2022-08-17T22:20:53.515Z,4.90
2022-08-17T22:23:51.099Z,5.55
2022-08-17T22:26:49.324Z,5.05
2022-08-17T22:29:53.149Z,5.00
2022-08-17T22:32:48.326Z,5.03
2022-08-17T22:35:44.080Z,5.38
2022-08-17T22:38:30.349Z,5.18
2022-08-17T22:41:41.233Z,5.05
2022-08-17T22:44:58.169Z,5.30
2022-08-17T22:47:48.908Z,5.05
2022-08-17T22:50:35.132Z,5.07
2022-08-17T22:53:40.451Z,5.35
2022-08-17T22:56:40.987Z,5.07
2022-08-17T22:59:23.526Z,4.72
2022-08-17T23:02:13.170Z,5.20
2022-08-17T23:04:53.480Z,5.10
2022-08-17T23:07:31.724Z,5.85
2022-08-17T23:10:16.327Z,5.97
2022-08-17T23:12:57.503Z,5.43
2022-08-17T23:15:39.166Z,5.75
2022-08-17T23:18:17.340Z,5.50
2022-08-17T23:21:01.047Z,6.03
2022-08-17T23:23:51.615Z,5.28
2022-08-17T23:26:26.478Z,5.53
2022-08-17T23:29:07.707Z,5.78
2022-08-17T23:31:43.463Z,6.00
2022-08-17T23:34:20.389Z,5.80
2022-08-17T23:37:05.389Z,5.82
2022-08-17T23:39:47.741Z,5.72
2022-08-17T23:42:26.360Z,5.65
2022-08-17T23:45:10.246Z,6.03
2022-08-17T23:47:53.235Z,5.97
2022-08-17T23:50:41.040Z,5.88
2022-08-17T23:53:12.980Z,7.00
2022-08-17T23:56:06.886Z,7.20
2022-08-17T23:58:55.376Z,7.03
